createdAt,value
2019-05-25T00:01:38.595Z,19.65
2019-05-25T00:04:06.058Z,16.00
2019-05-25T00:06:33.497Z,18.02
2019-05-25T00:09:01.000Z,21.02
2019-05-25T00:11:28.570Z,16.02
2019-05-25T00:13:56.005Z,17.75
2019-05-25T00:16:23.505Z,17.02
2019-05-25T00:18:50.939Z,19.25
2019-05-25T00:21:18.440Z,15.60
2019-05-25T00:23:46.758Z,22.10
2019-05-25T00:26:14.365Z,14.78
2019-05-25T00:28:41.822Z,16.60
2019-05-25T00:31:09.328Z,16.40
2019-05-25T00:33:36.798Z,19.25
2019-05-25T00:36:04.260Z,15.65
2019-05-25T00:38:31.761Z,15.08
2019-05-25T00:40:59.236Z,15.65
2019-05-25T00:43:26.727Z,17.90
2019-05-25T00:45:54.221Z,16.87
2019-05-25T00:48:21.744Z,17.55
2019-05-25T00:50:49.247Z,14.95
2019-05-25T00:53:16.704Z,18.20
2019-05-25T00:55:44.232Z,14.55
2019-05-25T00:58:11.698Z,18.87
2019-05-25T01:00:39.373Z,18.52
2019-05-25T01:03:06.846Z,20.00
2019-05-25T01:05:34.330Z,23.40
2019-05-25T01:08:01.830Z,26.40
2019-05-25T01:10:29.341Z,18.00
2019-05-25T01:12:56.847Z,20.45
2019-05-25T01:15:24.334Z,22.00
2019-05-25T01:17:51.841Z,16.77
2019-05-25T01:20:21.154Z,18.10
2019-05-25T01:22:48.643Z,14.50
2019-05-25T01:25:17.065Z,19.62
2019-05-25T01:27:44.502Z,14.33
2019-05-25T01:30:13.159Z,19.92
2019-05-25T01:32:40.693Z,18.30
2019-05-25T01:35:08.438Z,17.67
2019-05-25T01:37:35.924Z,16.55
2019-05-25T01:40:03.819Z,16.73
2019-05-25T01:42:31.280Z,16.73
2019-05-25T01:44:58.734Z,16.50
2019-05-25T01:47:26.213Z,15.58
2019-05-25T01:49:53.800Z,21.12
2019-05-25T01:52:21.251Z,19.30
2019-05-25T01:54:59.446Z,20.55
2019-05-25T01:57:18.001Z,18.02
2019-05-25T01:59:45.444Z,21.45
2019-05-25T02:02:13.373Z,20.65
2019-05-25T02:04:40.774Z,19.02
2019-05-25T02:07:08.214Z,20.25
2019-05-25T02:09:35.699Z,20.10
2019-05-25T02:12:03.163Z,20.00
2019-05-25T02:14:30.687Z,18.95
2019-05-25T02:16:58.157Z,23.80
2019-05-25T02:19:25.612Z,17.15
2019-05-25T02:21:53.146Z,18.65
2019-05-25T02:24:20.627Z,19.65
2019-05-25T02:26:48.221Z,17.73
2019-05-25T02:29:15.674Z,18.17
2019-05-25T02:31:43.138Z,17.25
2019-05-25T02:34:10.691Z,16.50
2019-05-25T02:36:38.142Z,17.20
2019-05-25T02:39:06.825Z,16.77
2019-05-25T02:41:34.775Z,16.60
2019-05-25T02:44:02.850Z,17.17
2019-05-25T02:46:30.337Z,19.37
2019-05-25T02:48:57.802Z,18.27
2019-05-25T02:51:25.309Z,17.73
2019-05-25T02:53:52.802Z,20.30
2019-05-25T02:56:20.258Z,17.05
2019-05-25T02:58:47.711Z,21.80
2019-05-25T03:01:15.143Z,17.30
2019-05-25T03:03:42.627Z,19.90
2019-05-25T03:06:10.385Z,19.75
2019-05-25T03:08:39.022Z,19.15
2019-05-25T03:11:06.651Z,18.42
2019-05-25T03:13:34.143Z,20.48
2019-05-25T03:16:01.722Z,19.12
2019-05-25T03:18:29.252Z,19.62
2019-05-25T03:20:56.715Z,21.87
2019-05-25T03:23:24.182Z,19.98
2019-05-25T03:25:51.649Z,21.45
2019-05-25T03:28:19.822Z,21.50
2019-05-25T03:30:47.272Z,21.95
2019-05-25T03:33:14.777Z,19.37
2019-05-25T03:35:42.220Z,19.67
2019-05-25T03:38:09.685Z,19.70
2019-05-25T03:40:37.185Z,18.55
2019-05-25T03:43:04.658Z,18.25
2019-05-25T03:45:32.378Z,18.85
2019-05-25T03:47:59.851Z,16.85
2019-05-25T03:50:27.308Z,18.45
2019-05-25T03:52:54.806Z,21.12
2019-05-25T03:55:22.301Z,20.92
2019-05-25T03:57:49.798Z,20.40
2019-05-25T04:00:30.142Z,19.52
2019-05-25T04:02:57.603Z,18.87
2019-05-25T04:05:25.083Z,18.23
2019-05-25T04:07:52.538Z,20.32
2019-05-25T04:10:20.026Z,18.85
2019-05-25T04:12:47.523Z,17.10
2019-05-25T04:15:15.762Z,21.68
2019-05-25T04:17:43.234Z,16.42
2019-05-25T04:20:10.823Z,16.87
2019-05-25T04:22:38.280Z,18.60
2019-05-25T04:25:05.879Z,15.43
2019-05-25T04:27:33.372Z,17.95
2019-05-25T04:30:00.867Z,17.07
2019-05-25T04:32:28.343Z,17.75
2019-05-25T04:34:55.813Z,18.17
2019-05-25T04:37:23.311Z,19.67
2019-05-25T04:39:50.807Z,15.23
2019-05-25T04:42:18.277Z,17.77
2019-05-25T04:44:45.758Z,19.52
2019-05-25T04:47:26.132Z,19.60
2019-05-25T04:49:42.515Z,20.55
2019-05-25T04:52:10.001Z,15.30
2019-05-25T04:54:37.485Z,14.85
2019-05-25T04:57:05.108Z,18.57
2019-05-25T04:59:32.546Z,14.83
2019-05-25T05:02:00.012Z,16.65
2019-05-25T05:04:27.532Z,15.63
2019-05-25T05:06:54.974Z,17.42
2019-05-25T05:09:22.440Z,13.28
2019-05-25T05:11:49.953Z,14.85
2019-05-25T05:14:17.480Z,13.68
2019-05-25T05:16:45.085Z,16.23
2019-05-25T05:19:12.587Z,15.28
2019-05-25T05:21:40.051Z,15.58
2019-05-25T05:24:07.551Z,14.55
2019-05-25T05:26:35.039Z,14.87
2019-05-25T05:29:02.541Z,16.67
2019-05-25T05:31:30.058Z,14.38
2019-05-25T05:33:58.025Z,15.80
2019-05-25T05:36:26.539Z,14.20
2019-05-25T05:38:55.031Z,16.67
2019-05-25T05:41:22.919Z,15.63
2019-05-25T05:43:53.687Z,14.07
2019-05-25T05:46:22.519Z,17.87
2019-05-25T05:48:50.807Z,14.00
2019-05-25T05:51:19.967Z,18.73
2019-05-25T05:53:52.953Z,18.77
2019-05-25T05:56:20.424Z,15.28
2019-05-25T05:58:47.887Z,17.07
2019-05-25T06:01:15.376Z,16.65
2019-05-25T06:03:42.925Z,15.28
2019-05-25T06:06:10.428Z,18.57
2019-05-25T06:08:37.898Z,16.67
2019-05-25T06:11:05.424Z,15.18
2019-05-25T06:13:32.915Z,16.87
2019-05-25T06:16:00.419Z,19.35
2019-05-25T06:18:27.935Z,15.65
2019-05-25T06:20:55.411Z,16.87
2019-05-25T06:23:22.872Z,17.98
2019-05-25T06:25:50.399Z,20.40
2019-05-25T06:28:21.628Z,13.65
2019-05-25T06:30:47.338Z,14.07
2019-05-25T06:33:14.916Z,16.85
2019-05-25T06:35:42.392Z,14.50
2019-05-25T06:38:09.954Z,15.40
2019-05-25T06:40:37.489Z,16.52
2019-05-25T06:43:04.966Z,17.00
2019-05-25T06:45:32.441Z,20.02
2019-05-25T06:47:59.960Z,19.77
2019-05-25T06:50:27.441Z,21.57
2019-05-25T06:52:57.815Z,22.65
2019-05-25T06:55:24.298Z,19.82
2019-05-25T06:57:51.887Z,20.70
2019-05-25T07:00:19.739Z,21.55
2019-05-25T07:02:47.250Z,19.27
2019-05-25T07:05:14.885Z,19.20
2019-05-25T07:07:42.414Z,21.10
2019-05-25T07:10:10.345Z,21.15
2019-05-25T07:12:37.877Z,22.70
2019-05-25T07:15:05.689Z,21.10
2019-05-25T07:17:33.192Z,27.05
2019-05-25T07:20:00.719Z,26.10
2019-05-25T07:22:28.240Z,28.42
2019-05-25T07:24:55.760Z,26.45
2019-05-25T07:27:23.377Z,25.02
2019-05-25T07:29:50.923Z,24.65
2019-05-25T07:32:18.682Z,26.65
2019-05-25T07:34:46.162Z,32.35
2019-05-25T07:37:13.679Z,27.65
2019-05-25T07:39:41.187Z,27.13
2019-05-25T07:42:08.673Z,28.50
2019-05-25T07:44:36.511Z,25.80
2019-05-25T07:47:04.005Z,26.95
2019-05-25T07:49:31.495Z,25.60
2019-05-25T07:52:02.426Z,28.23
2019-05-25T07:54:28.347Z,28.87
2019-05-25T07:56:55.821Z,26.00
2019-05-25T07:59:23.400Z,24.23
2019-05-25T08:01:50.874Z,24.87
2019-05-25T08:04:18.368Z,27.75
2019-05-25T08:06:45.891Z,28.85
2019-05-25T08:09:13.422Z,27.22
2019-05-25T08:11:40.897Z,30.17
2019-05-25T08:14:08.420Z,31.48
2019-05-25T08:16:35.873Z,33.65
2019-05-25T08:19:03.361Z,30.77
2019-05-25T08:21:30.873Z,30.45
2019-05-25T08:23:58.388Z,37.40
2019-05-25T08:26:26.076Z,33.38
2019-05-25T08:28:53.616Z,36.05
2019-05-25T08:31:21.077Z,32.70
2019-05-25T08:33:48.658Z,42.67
2019-05-25T08:36:16.131Z,43.98
2019-05-25T08:38:43.627Z,39.35
2019-05-25T08:41:11.142Z,35.73
2019-05-25T08:43:38.596Z,31.73
2019-05-25T08:46:06.425Z,37.70
2019-05-25T08:48:34.164Z,42.58
2019-05-25T08:51:01.600Z,34.60
2019-05-25T08:53:40.702Z,37.25
2019-05-25T08:55:58.433Z,40.92
2019-05-25T08:58:25.872Z,40.92
2019-05-25T09:00:53.336Z,42.60
2019-05-25T09:03:20.851Z,47.50
2019-05-25T09:05:48.359Z,39.75
2019-05-25T09:08:15.811Z,43.23
2019-05-25T09:10:43.268Z,45.48
2019-05-25T09:13:10.802Z,39.33
2019-05-25T09:15:38.268Z,36.63
2019-05-25T09:18:05.763Z,40.17
2019-05-25T09:20:33.240Z,38.53
2019-05-25T09:23:00.746Z,35.75
2019-05-25T09:25:28.271Z,36.55
2019-05-25T09:27:55.775Z,34.73
2019-05-25T09:30:23.755Z,30.62
2019-05-25T09:32:51.239Z,27.70
2019-05-25T09:35:18.790Z,29.48
2019-05-25T09:37:46.279Z,32.08
2019-05-25T09:40:14.831Z,32.38
2019-05-25T09:42:42.524Z,34.63
2019-05-25T09:45:14.011Z,32.63
2019-05-25T09:47:40.558Z,30.62
2019-05-25T09:50:08.541Z,25.82
2019-05-25T09:52:36.083Z,24.27
2019-05-25T09:55:04.433Z,21.37
2019-05-25T09:57:31.983Z,24.75
2019-05-25T09:59:59.458Z,16.97
2019-05-25T10:02:26.972Z,16.62
2019-05-25T10:04:54.735Z,14.25
2019-05-25T10:07:22.740Z,15.15
2019-05-25T10:09:50.309Z,16.07
2019-05-25T10:12:18.127Z,12.58
2019-05-25T10:14:45.663Z,13.28
2019-05-25T10:17:13.183Z,11.45
2019-05-25T10:19:40.723Z,11.35
2019-05-25T10:22:08.214Z,14.23
2019-05-25T10:24:35.750Z,10.95
2019-05-25T10:27:03.270Z,8.25
2019-05-25T10:29:37.357Z,9.65
2019-05-25T10:32:00.091Z,13.32
2019-05-25T10:34:27.605Z,8.10
2019-05-25T10:36:55.359Z,7.70
2019-05-25T10:39:22.887Z,7.40
2019-05-25T10:41:50.368Z,8.68
2019-05-25T10:44:17.828Z,9.90
2019-05-25T10:46:45.380Z,8.48
2019-05-25T10:49:12.919Z,7.33
2019-05-25T10:51:40.374Z,7.62
2019-05-25T10:54:07.886Z,8.88
2019-05-25T10:56:35.379Z,7.45
2019-05-25T10:59:02.915Z,10.05
2019-05-25T11:01:30.396Z,7.47
2019-05-25T11:03:57.909Z,6.33
2019-05-25T11:06:25.479Z,8.70
2019-05-25T11:08:52.955Z,7.03
2019-05-25T11:11:20.490Z,5.65
2019-05-25T11:13:47.986Z,5.47
2019-05-25T11:16:15.447Z,7.30
2019-05-25T11:18:42.950Z,5.47
2019-05-25T11:21:10.839Z,5.90
2019-05-25T11:23:38.331Z,7.62
2019-05-25T11:26:05.812Z,6.10
2019-05-25T11:28:33.316Z,6.53
2019-05-25T11:31:00.823Z,6.10
2019-05-25T11:33:28.337Z,8.28
2019-05-25T11:35:55.792Z,6.35
2019-05-25T11:38:23.319Z,8.13
2019-05-25T11:40:50.815Z,6.47
2019-05-25T11:43:18.310Z,6.78
2019-05-25T11:45:45.806Z,9.18
2019-05-25T11:48:13.323Z,9.35
2019-05-25T11:50:40.827Z,10.80
2019-05-25T11:53:08.324Z,8.75
2019-05-25T11:55:35.824Z,7.50
2019-05-25T11:58:03.699Z,7.97
2019-05-25T12:00:31.209Z,8.45
2019-05-25T12:05:32.598Z,12.45
2019-05-25T12:08:00.082Z,12.15
2019-05-25T12:10:27.546Z,16.67
2019-05-25T12:12:55.097Z,10.82
2019-05-25T12:15:22.559Z,11.38
2019-05-25T12:17:50.052Z,11.15
2019-05-25T12:20:18.133Z,9.98
2019-05-25T12:22:45.562Z,10.80
2019-05-25T12:25:13.187Z,11.45
2019-05-25T12:27:40.656Z,10.30
2019-05-25T12:30:09.220Z,12.95
2019-05-25T12:32:36.705Z,10.43
2019-05-25T12:35:04.720Z,12.00
2019-05-25T12:37:32.171Z,10.75
2019-05-25T12:39:59.675Z,10.40
2019-05-25T12:42:27.112Z,10.72
2019-05-25T12:44:54.551Z,12.35
2019-05-25T12:47:22.036Z,5.87
2019-05-25T12:49:51.129Z,6.95
2019-05-25T12:52:18.775Z,4.33
2019-05-25T12:54:46.218Z,3.80
2019-05-25T12:57:13.776Z,5.17
2019-05-25T12:59:41.207Z,6.58
2019-05-25T13:02:08.688Z,5.62
2019-05-25T13:04:36.166Z,7.60
2019-05-25T13:07:03.684Z,7.53
2019-05-25T13:09:31.187Z,10.03
2019-05-25T13:11:58.655Z,6.60
2019-05-25T13:14:26.442Z,7.50
2019-05-25T13:16:53.908Z,9.68
2019-05-25T13:19:21.369Z,11.80
2019-05-25T13:21:48.860Z,8.90
2019-05-25T13:24:16.343Z,7.80
2019-05-25T13:26:43.822Z,8.28
2019-05-25T13:29:11.352Z,11.12
2019-05-25T13:31:38.791Z,6.55
2019-05-25T13:34:06.289Z,9.48
2019-05-25T13:36:33.801Z,8.45
2019-05-25T13:39:01.321Z,10.70
2019-05-25T13:41:28.716Z,7.65
2019-05-25T13:43:56.168Z,9.55
2019-05-25T13:46:23.633Z,7.67
2019-05-25T13:48:51.118Z,9.70
2019-05-25T13:51:18.640Z,9.58
2019-05-25T13:53:46.097Z,7.40
2019-05-25T13:56:13.604Z,9.70
2019-05-25T13:58:41.040Z,7.50
2019-05-25T14:01:08.552Z,8.38
2019-05-25T14:03:36.019Z,10.03
2019-05-25T14:06:03.583Z,11.60
2019-05-25T14:08:31.148Z,9.90
2019-05-25T14:10:58.908Z,7.35
2019-05-25T14:13:26.368Z,6.85
2019-05-25T14:16:06.235Z,7.28
2019-05-25T14:18:23.057Z,5.90
2019-05-25T14:20:50.531Z,5.37
2019-05-25T14:23:18.045Z,5.87
2019-05-25T14:25:45.475Z,8.50
2019-05-25T14:28:12.956Z,6.60
2019-05-25T14:30:40.463Z,8.88
2019-05-25T14:33:07.946Z,8.25
2019-05-25T14:35:35.445Z,6.55
2019-05-25T14:38:02.924Z,8.65
2019-05-25T14:40:30.437Z,9.70
2019-05-25T14:42:57.905Z,6.67
2019-05-25T14:45:25.355Z,4.65
2019-05-25T14:47:52.845Z,6.25
2019-05-25T14:50:20.317Z,5.75
2019-05-25T14:52:47.817Z,7.45
2019-05-25T14:55:15.421Z,6.28
2019-05-25T14:57:42.931Z,4.35
2019-05-25T15:00:11.385Z,3.55
2019-05-25T15:02:38.911Z,4.05
2019-05-25T15:05:06.434Z,3.52
2019-05-25T15:07:33.916Z,3.45
2019-05-25T15:10:01.400Z,5.67
2019-05-25T15:12:28.892Z,3.80
2019-05-25T15:14:56.415Z,3.67
2019-05-25T15:17:23.888Z,3.40
2019-05-25T15:19:51.422Z,3.55
2019-05-25T15:22:18.934Z,3.85
2019-05-25T15:24:46.407Z,5.80
2019-05-25T15:27:13.911Z,5.62
2019-05-25T15:29:41.366Z,4.67
2019-05-25T15:32:19.563Z,6.50
2019-05-25T15:34:38.100Z,3.75
2019-05-25T15:37:05.671Z,5.87
2019-05-25T15:39:33.171Z,7.65
2019-05-25T15:42:00.685Z,6.42
2019-05-25T15:44:28.189Z,6.50
2019-05-25T15:46:55.817Z,13.65
2019-05-25T15:49:32.855Z,8.35
2019-05-25T15:51:52.640Z,5.92
2019-05-25T15:54:20.120Z,6.17
2019-05-25T15:56:47.622Z,6.67
2019-05-25T15:59:15.050Z,6.08
2019-05-25T16:01:42.497Z,5.30
2019-05-25T16:04:10.050Z,5.67
2019-05-25T16:06:37.525Z,8.45
2019-05-25T16:09:06.116Z,6.17
2019-05-25T16:11:33.627Z,7.20
2019-05-25T16:14:01.058Z,4.33
2019-05-25T16:16:30.097Z,6.85
2019-05-25T16:18:57.786Z,8.50
2019-05-25T16:21:25.233Z,7.62
2019-05-25T16:23:52.699Z,6.00
2019-05-25T16:26:20.247Z,7.80
2019-05-25T16:28:47.737Z,7.72
2019-05-25T16:31:15.231Z,6.28
2019-05-25T16:33:42.720Z,4.42
2019-05-25T16:36:10.258Z,5.42
2019-05-25T16:38:37.769Z,6.78
2019-05-25T16:41:05.265Z,7.10
2019-05-25T16:43:32.759Z,6.95
2019-05-25T16:46:01.278Z,4.85
2019-05-25T16:48:28.849Z,7.70
2019-05-25T16:50:56.331Z,4.83
2019-05-25T16:53:23.872Z,7.17
2019-05-25T16:55:54.598Z,5.78
2019-05-25T16:58:20.773Z,5.08
2019-05-25T17:00:48.298Z,4.62
2019-05-25T17:03:27.410Z,4.28
2019-05-25T17:05:45.121Z,6.83
2019-05-25T17:08:12.640Z,5.55
2019-05-25T17:10:40.175Z,5.17
2019-05-25T17:13:07.659Z,5.65
2019-05-25T17:15:35.180Z,7.90
2019-05-25T17:18:04.773Z,6.67
2019-05-25T17:20:32.108Z,7.60
2019-05-25T17:22:59.615Z,5.25
2019-05-25T17:25:27.131Z,6.85
2019-05-25T17:27:54.597Z,8.10
2019-05-25T17:30:36.551Z,6.55
2019-05-25T17:33:04.185Z,7.85
2019-05-25T17:35:31.825Z,10.53
2019-05-25T17:37:59.323Z,9.03
2019-05-25T17:40:26.814Z,10.60
2019-05-25T17:42:54.327Z,7.15
2019-05-25T17:45:21.805Z,6.90
2019-05-25T17:47:49.270Z,7.47
2019-05-25T17:50:16.807Z,7.35
2019-05-25T17:52:44.297Z,8.88
2019-05-25T17:55:12.043Z,8.38
2019-05-25T17:57:39.578Z,7.90
2019-05-25T18:00:08.895Z,8.28
2019-05-25T18:02:36.374Z,11.25
2019-05-25T18:05:04.284Z,12.20
2019-05-25T18:07:31.888Z,10.03
2019-05-25T18:09:59.441Z,10.65
2019-05-25T18:12:26.932Z,9.73
2019-05-25T18:14:54.410Z,10.20
2019-05-25T18:17:21.959Z,8.83
2019-05-25T18:19:49.466Z,9.15
2019-05-25T18:22:16.962Z,8.90
2019-05-25T18:24:44.792Z,9.40
2019-05-25T18:27:12.297Z,9.93
2019-05-25T18:29:51.348Z,10.00
2019-05-25T18:32:18.881Z,17.07
2019-05-25T18:34:46.433Z,16.80
2019-05-25T18:37:13.972Z,17.20
2019-05-25T18:39:41.634Z,13.03
2019-05-25T18:42:09.186Z,13.32
2019-05-25T18:44:37.307Z,12.98
2019-05-25T18:47:04.998Z,9.48
2019-05-25T18:49:32.522Z,12.55
2019-05-25T18:52:00.193Z,12.10
2019-05-25T18:54:28.017Z,10.72
2019-05-25T18:56:55.602Z,11.05
2019-05-25T18:59:23.137Z,10.18
2019-05-25T19:01:50.657Z,11.60
2019-05-25T19:04:18.192Z,15.03
2019-05-25T19:06:45.742Z,11.90
2019-05-25T19:09:13.278Z,9.78
2019-05-25T19:11:40.757Z,11.75
2019-05-25T19:14:08.275Z,9.13
2019-05-25T19:16:35.874Z,8.78
2019-05-25T19:19:12.455Z,10.18
2019-05-25T19:21:40.004Z,9.20
2019-05-25T19:24:07.523Z,9.43
2019-05-25T19:26:35.031Z,7.53
2019-05-25T19:29:05.437Z,9.18
2019-05-25T19:31:31.890Z,7.10
2019-05-25T19:33:59.386Z,8.05
2019-05-25T19:36:27.073Z,8.75
2019-05-25T19:38:54.582Z,8.23
2019-05-25T19:41:22.070Z,8.85
2019-05-25T19:43:49.599Z,8.08
2019-05-25T19:46:17.203Z,7.00
2019-05-25T19:48:44.713Z,7.83
2019-05-25T19:51:12.217Z,6.83
2019-05-25T19:53:39.783Z,7.15
2019-05-25T19:56:07.296Z,6.45
2019-05-25T19:58:34.800Z,8.70
2019-05-25T20:01:02.320Z,7.15
2019-05-25T20:03:30.296Z,6.22
2019-05-25T20:05:57.826Z,8.68
2019-05-25T20:08:25.283Z,5.45
2019-05-25T20:10:55.483Z,9.13
2019-05-25T20:13:22.155Z,8.38
2019-05-25T20:15:50.224Z,5.62
2019-05-25T20:18:17.767Z,8.60
2019-05-25T20:20:45.258Z,6.15
2019-05-25T20:23:12.800Z,7.90
2019-05-25T20:25:40.730Z,6.75
2019-05-25T20:28:08.267Z,6.85
2019-05-25T20:30:35.704Z,7.60
2019-05-25T20:33:03.208Z,9.38
2019-05-25T20:35:33.342Z,9.78
2019-05-25T20:38:00.076Z,6.58
2019-05-25T20:40:27.600Z,6.15
2019-05-25T20:42:55.087Z,9.55
2019-05-25T20:45:22.626Z,9.08
2019-05-25T20:47:50.194Z,7.10
2019-05-25T20:50:17.641Z,6.47
2019-05-25T20:52:45.170Z,11.63
2019-05-25T20:55:13.730Z,7.72
2019-05-25T20:57:41.220Z,7.12
2019-05-25T21:00:09.313Z,6.83
2019-05-25T21:02:36.913Z,8.95
2019-05-25T21:05:04.877Z,8.15
2019-05-25T21:07:32.427Z,9.78
2019-05-25T21:09:59.886Z,9.08
2019-05-25T21:12:27.387Z,7.80
2019-05-25T21:14:54.925Z,8.35
2019-05-25T21:17:22.412Z,10.40
2019-05-25T21:19:49.941Z,9.05
2019-05-25T21:22:17.494Z,7.28
2019-05-25T21:24:44.996Z,8.58
2019-05-25T21:27:12.472Z,9.10
2019-05-25T21:29:40.356Z,9.13
2019-05-25T21:32:07.946Z,9.30
2019-05-25T21:34:35.444Z,9.13
2019-05-25T21:37:03.056Z,10.10
2019-05-25T21:39:30.592Z,9.08
2019-05-25T21:41:58.084Z,9.78
2019-05-25T21:44:25.567Z,10.40
2019-05-25T21:46:53.424Z,10.70
2019-05-25T21:49:21.308Z,12.68
2019-05-25T21:51:48.819Z,10.60
2019-05-25T21:54:16.334Z,12.85
2019-05-25T21:56:43.862Z,11.38
2019-05-25T21:59:11.383Z,13.40
2019-05-25T22:01:38.868Z,12.68
2019-05-25T22:04:06.360Z,12.90
2019-05-25T22:06:33.828Z,13.30
2019-05-25T22:09:01.371Z,20.60
2019-05-25T22:11:28.891Z,12.33
2019-05-25T22:13:56.388Z,14.83
2019-05-25T22:16:23.902Z,12.47
2019-05-25T22:18:51.428Z,12.25
2019-05-25T22:21:18.920Z,13.28
2019-05-25T22:23:46.447Z,14.93
2019-05-25T22:26:13.925Z,12.05
2019-05-25T22:28:44.896Z,15.10
2019-05-25T22:31:10.756Z,14.07
2019-05-25T22:33:38.252Z,15.45
2019-05-25T22:36:05.781Z,14.38
2019-05-25T22:38:33.305Z,16.93
2019-05-25T22:41:00.777Z,14.93
2019-05-25T22:43:28.290Z,18.98
2019-05-25T22:45:55.816Z,16.60
2019-05-25T22:48:23.382Z,16.67
2019-05-25T22:50:50.923Z,18.32
2019-05-25T22:53:18.739Z,17.35
2019-05-25T22:55:46.273Z,18.37
2019-05-25T22:58:13.811Z,15.23
2019-05-25T23:00:41.283Z,16.02
2019-05-25T23:03:08.803Z,16.55
2019-05-25T23:05:36.274Z,16.82
2019-05-25T23:08:03.842Z,15.03
2019-05-25T23:10:31.343Z,18.70
2019-05-25T23:12:59.136Z,17.12
2019-05-25T23:15:26.608Z,16.32
2019-05-25T23:17:54.152Z,18.98
2019-05-25T23:20:21.690Z,21.55
2019-05-25T23:22:49.526Z,18.65
2019-05-25T23:25:17.038Z,17.60
2019-05-25T23:27:44.525Z,18.67
2019-05-25T23:30:12.506Z,22.15
2019-05-25T23:32:40.060Z,18.90
2019-05-25T23:35:07.634Z,18.05
2019-05-25T23:37:35.104Z,18.95
2019-05-25T23:40:03.131Z,16.75
2019-05-25T23:42:30.729Z,17.52
2019-05-25T23:44:58.222Z,21.35
2019-05-25T23:47:26.141Z,18.85
2019-05-25T23:49:53.652Z,17.65
2019-05-25T23:52:21.435Z,22.55
2019-05-25T23:54:49.053Z,20.02
2019-05-25T23:57:16.520Z,22.98
2019-05-25T23:59:44.010Z,19.40
